createdAt,value
2018-01-31T01:54:03.182Z,6.62
2018-01-31T01:56:30.766Z,6.90
2018-01-31T01:58:58.321Z,6.65
2018-01-31T02:01:25.889Z,7.07
2018-01-31T02:03:53.426Z,6.55
2018-01-31T02:06:21.000Z,7.05
2018-01-31T02:08:48.549Z,7.28
2018-01-31T02:11:16.143Z,7.25
2018-01-31T02:13:44.566Z,8.20
2018-01-31T02:16:12.150Z,8.18
2018-01-31T02:18:39.730Z,8.40
2018-01-31T02:21:07.300Z,8.45
2018-01-31T02:23:34.872Z,8.48
2018-01-31T02:26:02.477Z,8.32
2018-01-31T02:28:30.835Z,7.22
2018-01-31T02:30:59.157Z,8.27
2018-01-31T02:33:26.714Z,7.68
2018-01-31T02:35:54.287Z,7.68
2018-01-31T02:38:33.801Z,8.45
2018-01-31T02:41:02.110Z,8.43
2018-01-31T02:43:29.688Z,8.65
2018-01-31T02:45:57.257Z,8.50
2018-01-31T02:48:24.853Z,9.05
2018-01-31T02:50:53.196Z,7.87
2018-01-31T02:53:20.842Z,8.50
2018-01-31T02:55:48.477Z,8.80
2018-01-31T02:58:16.094Z,7.40
2018-01-31T03:00:43.657Z,8.70
2018-01-31T03:03:11.261Z,9.73
2018-01-31T03:05:39.592Z,8.43
2018-01-31T03:08:07.145Z,7.78
2018-01-31T03:10:34.717Z,5.97
2018-01-31T03:13:02.407Z,6.53
2018-01-31T03:15:29.954Z,6.00
2018-01-31T03:17:57.512Z,4.80
2018-01-31T03:20:25.072Z,4.93
2018-01-31T03:22:52.617Z,4.00
2018-01-31T03:25:20.168Z,4.40
2018-01-31T03:27:47.957Z,4.10
2018-01-31T03:30:15.504Z,4.57
2018-01-31T03:32:43.057Z,4.10
2018-01-31T03:35:10.605Z,4.00
2018-01-31T03:37:38.160Z,3.50
2018-01-31T03:40:05.717Z,3.03
2018-01-31T03:42:33.304Z,3.37
2018-01-31T03:45:00.864Z,2.30
2018-01-31T03:47:28.406Z,2.47
2018-01-31T03:49:55.961Z,2.90
2018-01-31T03:52:23.518Z,2.53
2018-01-31T03:54:51.826Z,2.47
2018-01-31T03:57:19.373Z,2.40
2018-01-31T03:59:46.925Z,2.07
2018-01-31T04:02:15.264Z,2.20
2018-01-31T04:04:42.801Z,1.90
2018-01-31T04:07:10.368Z,1.70
2018-01-31T04:09:37.916Z,1.60
2018-01-31T04:12:05.507Z,1.70
2018-01-31T04:14:33.078Z,1.50
2018-01-31T04:17:00.741Z,1.40
2018-01-31T04:19:28.305Z,1.60
2018-01-31T04:21:55.850Z,1.50
2018-01-31T04:24:23.424Z,1.10
2018-01-31T04:26:51.238Z,1.07
2018-01-31T04:29:19.589Z,0.90
2018-01-31T04:31:47.122Z,0.93
2018-01-31T04:34:14.716Z,0.97
2018-01-31T04:36:42.272Z,1.10
2018-01-31T04:39:09.885Z,0.97
2018-01-31T04:41:37.580Z,0.90
2018-01-31T04:44:05.141Z,0.80
2018-01-31T04:46:32.716Z,0.93
2018-01-31T04:49:01.029Z,0.70
2018-01-31T04:51:29.353Z,0.90
2018-01-31T04:53:57.005Z,1.00
2018-01-31T04:56:24.557Z,0.90
2018-01-31T04:58:52.091Z,0.87
2018-01-31T05:01:20.449Z,0.70
2018-01-31T05:03:47.999Z,0.60
2018-01-31T05:06:16.446Z,0.90
2018-01-31T05:08:44.018Z,0.70
2018-01-31T05:11:11.579Z,0.67
2018-01-31T05:13:39.170Z,0.80
2018-01-31T05:16:06.724Z,0.70
2018-01-31T05:18:34.281Z,0.70
2018-01-31T05:21:01.850Z,0.93
2018-01-31T05:23:29.419Z,0.60
2018-01-31T05:25:56.978Z,0.80
2018-01-31T05:28:24.533Z,0.90
2018-01-31T05:30:52.121Z,0.97
2018-01-31T05:33:20.425Z,0.60
2018-01-31T05:35:47.984Z,0.70
2018-01-31T05:38:15.525Z,0.90
2018-01-31T05:40:43.855Z,0.70
2018-01-31T05:43:11.449Z,0.77
2018-01-31T05:45:39.010Z,0.70
2018-01-31T05:48:06.582Z,0.70
2018-01-31T05:50:34.125Z,0.70
2018-01-31T05:53:01.733Z,0.80
2018-01-31T05:55:29.420Z,0.70
2018-01-31T05:57:56.956Z,0.60
2018-01-31T06:00:25.324Z,1.10
2018-01-31T06:02:53.655Z,1.00
2018-01-31T06:05:21.185Z,0.70
2018-01-31T06:07:48.727Z,0.90
2018-01-31T06:10:17.062Z,0.83
2018-01-31T06:12:44.666Z,0.83
2018-01-31T06:15:13.004Z,1.13
2018-01-31T06:17:40.549Z,0.80
2018-01-31T06:20:08.109Z,0.90
2018-01-31T06:22:35.773Z,0.80
2018-01-31T06:25:03.339Z,0.90
2018-01-31T06:27:30.897Z,0.97
2018-01-31T06:29:58.465Z,1.10
2018-01-31T06:32:26.042Z,1.07
2018-01-31T06:34:53.585Z,0.73
2018-01-31T06:37:21.162Z,0.80
2018-01-31T06:39:48.713Z,0.90
2018-01-31T06:42:16.347Z,0.77
2018-01-31T06:44:44.873Z,0.70
2018-01-31T06:47:12.437Z,0.80
2018-01-31T06:49:39.992Z,0.93
2018-01-31T06:52:07.552Z,1.00
2018-01-31T06:54:35.122Z,0.60
2018-01-31T06:57:02.668Z,0.67
2018-01-31T06:59:30.221Z,0.80
2018-01-31T07:01:57.805Z,0.97
2018-01-31T07:04:25.375Z,0.80
2018-01-31T07:06:52.929Z,0.77
2018-01-31T07:09:20.486Z,0.63
2018-01-31T07:11:48.067Z,0.80
2018-01-31T07:14:15.601Z,0.80
2018-01-31T07:16:43.165Z,0.70
2018-01-31T07:19:10.733Z,0.90
2018-01-31T07:21:38.292Z,0.80
2018-01-31T07:24:05.841Z,0.70
2018-01-31T07:26:33.395Z,1.10
2018-01-31T07:29:00.989Z,0.80
2018-01-31T07:31:28.601Z,1.00
2018-01-31T07:33:57.198Z,1.37
2018-01-31T07:36:24.749Z,1.00
2018-01-31T07:38:53.069Z,0.70
2018-01-31T07:41:20.634Z,0.87
2018-01-31T07:43:48.193Z,1.00
2018-01-31T07:46:15.845Z,0.80
2018-01-31T07:48:43.529Z,0.80
2018-01-31T07:51:11.104Z,0.90
2018-01-31T07:53:38.668Z,0.70
2018-01-31T07:56:06.256Z,0.70
2018-01-31T07:58:33.844Z,0.70
2018-01-31T08:01:01.446Z,0.60
2018-01-31T08:03:28.997Z,0.83
2018-01-31T08:05:56.566Z,0.87
2018-01-31T08:08:24.146Z,1.00
2018-01-31T08:10:51.771Z,0.70
2018-01-31T08:13:19.333Z,0.70
2018-01-31T08:15:46.930Z,0.70
2018-01-31T08:18:14.502Z,0.70
2018-01-31T08:20:42.078Z,0.80
2018-01-31T08:23:10.396Z,0.70
2018-01-31T08:25:37.950Z,0.60
2018-01-31T08:28:05.537Z,0.87
2018-01-31T08:30:33.120Z,0.67
2018-01-31T08:33:00.803Z,1.00
2018-01-31T08:35:28.349Z,0.80
2018-01-31T08:37:56.821Z,0.60
2018-01-31T08:40:24.496Z,0.60
2018-01-31T08:42:52.186Z,0.70
2018-01-31T08:45:20.715Z,0.67
2018-01-31T08:47:48.265Z,0.70
2018-01-31T08:50:15.929Z,0.50
2018-01-31T08:52:43.481Z,0.77
2018-01-31T08:55:11.088Z,0.70
2018-01-31T08:57:38.681Z,0.60
2018-01-31T09:00:07.015Z,0.60
2018-01-31T09:02:34.677Z,0.90
2018-01-31T09:05:02.229Z,0.77
2018-01-31T09:07:29.789Z,0.60
2018-01-31T09:09:57.365Z,0.80
2018-01-31T09:12:24.916Z,0.60
2018-01-31T09:14:52.525Z,0.90
2018-01-31T09:17:20.069Z,0.80
2018-01-31T09:19:47.647Z,0.70
2018-01-31T09:22:16.048Z,1.00
2018-01-31T09:24:44.350Z,0.60
2018-01-31T09:27:11.922Z,0.70
2018-01-31T09:29:39.574Z,0.70
2018-01-31T09:32:07.905Z,1.10
2018-01-31T09:34:35.566Z,0.90
2018-01-31T09:37:03.156Z,0.80
2018-01-31T09:39:30.729Z,0.60
2018-01-31T09:41:59.050Z,0.83
2018-01-31T09:44:26.655Z,0.90
2018-01-31T09:46:54.285Z,0.90
2018-01-31T09:49:21.842Z,0.73
2018-01-31T09:51:49.528Z,0.67
2018-01-31T09:54:17.073Z,0.80
2018-01-31T09:56:44.653Z,1.00
2018-01-31T09:59:12.245Z,0.80
2018-01-31T10:01:39.802Z,0.70
2018-01-31T10:04:07.339Z,0.80
2018-01-31T10:06:34.941Z,0.80
2018-01-31T10:09:03.273Z,0.80
2018-01-31T10:11:30.821Z,0.80
2018-01-31T10:13:58.405Z,0.80
2018-01-31T10:16:25.996Z,0.90
2018-01-31T10:18:54.313Z,0.70
2018-01-31T10:21:21.873Z,0.80
2018-01-31T10:23:49.430Z,0.80
2018-01-31T10:26:16.998Z,0.80
2018-01-31T10:28:44.542Z,0.80
2018-01-31T10:31:12.131Z,0.63
2018-01-31T10:33:39.697Z,0.60
2018-01-31T10:36:07.252Z,0.80
2018-01-31T10:38:34.807Z,0.70
2018-01-31T10:41:02.373Z,0.80
2018-01-31T10:43:29.945Z,1.00
2018-01-31T10:45:57.503Z,0.80
2018-01-31T10:48:25.080Z,0.90
2018-01-31T10:50:52.638Z,1.07
2018-01-31T10:53:20.191Z,0.93
2018-01-31T10:58:15.422Z,0.87
2018-01-31T11:00:42.972Z,0.80
2018-01-31T11:03:10.668Z,0.70
2018-01-31T11:05:38.261Z,1.00
2018-01-31T11:08:06.572Z,1.00
2018-01-31T11:10:34.183Z,1.20
2018-01-31T11:13:02.194Z,1.00
2018-01-31T11:15:29.739Z,1.00
2018-01-31T11:17:58.080Z,1.00
2018-01-31T11:20:25.620Z,0.80
2018-01-31T11:22:53.229Z,0.87
2018-01-31T11:25:21.569Z,0.90
2018-01-31T11:27:49.168Z,0.83
2018-01-31T11:30:17.493Z,1.00
2018-01-31T11:32:45.092Z,1.10
2018-01-31T11:35:12.629Z,0.90
2018-01-31T11:37:40.289Z,0.90
2018-01-31T11:40:07.881Z,0.97
2018-01-31T11:42:35.615Z,0.90
2018-01-31T11:45:03.212Z,0.97
2018-01-31T11:47:30.775Z,1.00
2018-01-31T11:49:58.395Z,0.77
2018-01-31T11:52:25.995Z,0.87
2018-01-31T11:54:53.550Z,1.07
2018-01-31T11:57:21.112Z,0.70
2018-01-31T11:59:48.662Z,0.93
2018-01-31T12:02:16.382Z,0.53
2018-01-31T12:04:44.740Z,0.70
2018-01-31T12:07:12.312Z,0.60
2018-01-31T12:09:40.652Z,0.70
2018-01-31T12:12:08.236Z,0.70
2018-01-31T12:14:47.718Z,0.60
2018-01-31T12:17:15.365Z,0.90
2018-01-31T12:20:06.460Z,1.13
2018-01-31T12:22:45.895Z,0.83
2018-01-31T12:25:25.280Z,0.80
2018-01-31T12:31:03.181Z,0.70
2018-01-31T12:33:43.401Z,0.70
2018-01-31T12:36:22.969Z,0.80
2018-01-31T12:38:59.037Z,0.70
2018-01-31T12:41:26.061Z,0.90
2018-01-31T12:43:53.085Z,0.97
2018-01-31T12:46:32.468Z,0.90
2018-01-31T12:49:02.834Z,0.80
2018-01-31T12:51:45.039Z,0.80
2018-01-31T12:54:24.248Z,0.87
2018-01-31T12:57:04.278Z,1.07
2018-01-31T12:59:43.733Z,0.80
2018-01-31T13:02:23.134Z,1.13
2018-01-31T13:05:02.719Z,1.17
2018-01-31T13:07:42.062Z,0.70
2018-01-31T13:10:22.165Z,0.80
2018-01-31T13:13:01.612Z,1.00
2018-01-31T13:15:55.792Z,0.93
2018-01-31T13:18:35.259Z,1.03
2018-01-31T13:21:14.701Z,0.90
2018-01-31T13:23:54.030Z,0.87
2018-01-31T13:26:30.445Z,1.00
2018-01-31T13:29:10.610Z,0.90
2018-01-31T13:31:59.640Z,1.03
2018-01-31T13:34:39.097Z,1.33
2018-01-31T13:37:25.076Z,1.10
2018-01-31T13:40:04.684Z,1.10
2018-01-31T13:42:45.738Z,0.97
2018-01-31T13:48:28.265Z,1.60
2018-01-31T13:51:01.616Z,1.20
2018-01-31T13:53:40.976Z,1.13
2018-01-31T13:56:31.141Z,1.00
2018-01-31T13:59:10.413Z,0.80
2018-01-31T14:01:49.728Z,1.70
2018-01-31T14:04:29.285Z,1.30
2018-01-31T14:07:08.549Z,1.17
2018-01-31T14:09:48.019Z,0.80
2018-01-31T14:12:27.190Z,1.00
2018-01-31T14:15:06.669Z,1.30
2018-01-31T14:17:46.081Z,1.00
2018-01-31T14:20:24.277Z,1.00
2018-01-31T14:23:03.788Z,0.98
2018-01-31T14:25:43.081Z,1.50
2018-01-31T14:28:23.113Z,1.23
2018-01-31T14:31:02.414Z,1.20
2018-01-31T14:33:41.615Z,0.80
2018-01-31T14:36:12.395Z,0.95
2018-01-31T14:38:39.715Z,1.02
2018-01-31T14:41:07.585Z,1.10
2018-01-31T14:43:35.386Z,1.05
2018-01-31T14:46:02.488Z,1.95
2018-01-31T14:48:29.541Z,1.10
2018-01-31T14:50:57.357Z,1.20
2018-01-31T14:53:24.473Z,1.20
2018-01-31T14:55:52.304Z,1.10
2018-01-31T14:58:19.368Z,1.25
2018-01-31T15:00:47.189Z,1.10
2018-01-31T15:03:14.293Z,1.85
2018-01-31T15:05:42.088Z,1.17
2018-01-31T15:08:09.120Z,0.95
2018-01-31T15:10:37.030Z,1.20
2018-01-31T15:13:04.080Z,0.95
2018-01-31T15:15:32.625Z,1.20
2018-01-31T15:17:59.837Z,1.40
2018-01-31T15:20:26.888Z,1.27
2018-01-31T15:22:53.977Z,1.12
2018-01-31T15:25:21.017Z,1.10
2018-01-31T15:27:48.880Z,1.70
2018-01-31T15:30:16.748Z,1.25
2018-01-31T15:32:43.773Z,0.95
2018-01-31T15:35:10.812Z,1.15
2018-01-31T15:37:37.861Z,1.15
2018-01-31T15:40:15.048Z,1.00
2018-01-31T15:42:42.636Z,1.00
2018-01-31T15:45:10.428Z,1.92
2018-01-31T15:47:37.449Z,2.00
2018-01-31T15:50:05.448Z,1.25
2018-01-31T15:52:33.205Z,2.60
2018-01-31T15:55:00.376Z,1.90
2018-01-31T15:57:27.470Z,1.83
2018-01-31T15:59:56.444Z,1.62
2018-01-31T16:02:23.533Z,1.15
2018-01-31T16:04:51.310Z,1.75
2018-01-31T16:07:18.350Z,1.40
2018-01-31T16:09:46.257Z,1.40
2018-01-31T16:12:13.391Z,1.27
2018-01-31T16:14:41.205Z,1.20
2018-01-31T16:17:09.685Z,0.98
2018-01-31T16:19:49.014Z,1.85
2018-01-31T16:22:16.614Z,1.90
2018-01-31T16:24:44.973Z,1.50
2018-01-31T16:27:23.586Z,1.30
2018-01-31T16:30:17.720Z,2.55
2018-01-31T16:32:57.186Z,2.00
2018-01-31T16:35:24.742Z,1.70
2018-01-31T16:37:52.322Z,1.50
2018-01-31T16:40:19.920Z,1.50
2018-01-31T16:42:47.497Z,1.25
2018-01-31T16:45:15.838Z,1.80
2018-01-31T16:47:43.465Z,1.90
2018-01-31T16:50:11.044Z,1.30
2018-01-31T16:52:38.617Z,1.20
2018-01-31T16:55:09.837Z,1.80
2018-01-31T16:57:37.490Z,4.43
2018-01-31T17:00:05.039Z,4.15
2018-01-31T17:02:32.630Z,1.37
2018-01-31T17:05:00.263Z,2.17
2018-01-31T17:07:27.888Z,1.67
2018-01-31T17:09:55.456Z,1.73
2018-01-31T17:12:23.924Z,1.30
2018-01-31T17:14:51.513Z,1.45
2018-01-31T17:17:19.857Z,1.77
2018-01-31T17:19:47.434Z,2.00
2018-01-31T17:22:15.150Z,2.35
2018-01-31T17:24:42.758Z,4.90
2018-01-31T17:27:10.330Z,2.47
2018-01-31T17:29:38.870Z,3.62
2018-01-31T17:32:06.665Z,1.17
2018-01-31T17:34:35.004Z,1.77
2018-01-31T17:37:03.745Z,2.22
2018-01-31T17:39:31.306Z,1.98
2018-01-31T17:41:58.885Z,2.12
2018-01-31T17:44:26.453Z,1.75
2018-01-31T17:46:54.062Z,1.73
2018-01-31T17:49:22.397Z,1.95
2018-01-31T17:51:49.988Z,1.50
2018-01-31T17:54:17.582Z,1.83
2018-01-31T17:56:45.313Z,1.50
2018-01-31T17:59:12.908Z,1.70
2018-01-31T18:01:40.497Z,1.77
2018-01-31T18:04:08.161Z,1.75
2018-01-31T18:06:35.724Z,2.00
2018-01-31T18:09:03.285Z,1.65
2018-01-31T18:11:30.901Z,1.85
2018-01-31T18:13:58.412Z,2.10
2018-01-31T18:16:25.971Z,2.30
2018-01-31T18:18:53.525Z,2.10
2018-01-31T18:21:21.213Z,3.47
2018-01-31T18:23:48.782Z,1.95
2018-01-31T18:26:16.395Z,1.95
2018-01-31T18:28:44.060Z,2.67
2018-01-31T18:31:11.628Z,3.20
2018-01-31T18:33:39.267Z,2.78
2018-01-31T18:36:07.597Z,1.75
2018-01-31T18:38:36.022Z,2.00
2018-01-31T18:41:03.629Z,2.47
2018-01-31T18:43:31.183Z,1.75
2018-01-31T18:45:58.942Z,3.28
2018-01-31T18:48:26.576Z,2.12
2018-01-31T18:50:54.116Z,1.92
2018-01-31T18:53:22.462Z,2.10
2018-01-31T18:55:50.786Z,2.03
2018-01-31T18:58:18.345Z,2.50
2018-01-31T19:00:46.003Z,2.60
2018-01-31T19:03:13.621Z,2.97
2018-01-31T19:05:41.197Z,2.85
2018-01-31T19:08:08.979Z,1.90
2018-01-31T19:10:37.434Z,2.00
2018-01-31T19:13:04.997Z,1.77
2018-01-31T19:15:32.550Z,2.80
2018-01-31T19:18:00.128Z,3.00
2018-01-31T19:20:27.681Z,2.28
2018-01-31T19:22:56.023Z,2.90
2018-01-31T19:25:24.249Z,2.30
2018-01-31T19:27:51.817Z,3.40
2018-01-31T19:30:19.381Z,2.92
2018-01-31T19:32:47.181Z,3.00
2018-01-31T19:35:14.959Z,3.85
2018-01-31T19:37:42.564Z,3.25
2018-01-31T19:40:10.918Z,2.40
2018-01-31T19:42:38.486Z,2.45
2018-01-31T19:45:06.067Z,4.70
2018-01-31T19:47:33.632Z,2.28
2018-01-31T19:50:01.215Z,2.00
2018-01-31T19:52:29.585Z,2.90
2018-01-31T19:54:57.144Z,2.85
2018-01-31T19:57:24.740Z,2.58
2018-01-31T19:59:52.281Z,2.72
2018-01-31T20:02:20.602Z,2.22
2018-01-31T20:04:48.195Z,2.70
2018-01-31T20:07:15.752Z,3.10
2018-01-31T20:09:43.339Z,3.08
2018-01-31T20:12:11.869Z,2.45
2018-01-31T20:14:39.439Z,2.70
2018-01-31T20:17:07.021Z,3.80
2018-01-31T20:19:34.574Z,3.50
2018-01-31T20:22:02.152Z,4.90
2018-01-31T20:24:29.711Z,3.65
2018-01-31T20:26:57.286Z,2.58
2018-01-31T20:29:24.854Z,2.08
2018-01-31T20:31:52.409Z,2.37
2018-01-31T20:34:19.975Z,1.60
2018-01-31T20:36:47.526Z,2.60
2018-01-31T20:39:18.319Z,1.73
2018-01-31T20:41:45.889Z,1.73
2018-01-31T20:44:13.450Z,2.00
2018-01-31T20:46:41.028Z,2.25
2018-01-31T20:49:08.591Z,2.42
2018-01-31T20:51:36.949Z,2.40
2018-01-31T20:54:04.557Z,2.47
2018-01-31T20:56:32.169Z,1.92
2018-01-31T20:58:59.794Z,2.35
2018-01-31T21:01:28.165Z,2.05
2018-01-31T21:03:56.497Z,2.17
2018-01-31T21:06:24.063Z,2.20
2018-01-31T21:08:51.722Z,2.15
2018-01-31T21:11:19.279Z,2.62
2018-01-31T21:13:46.994Z,2.42
2018-01-31T21:16:14.550Z,2.53
2018-01-31T21:18:42.097Z,2.80
2018-01-31T21:21:09.676Z,2.97
2018-01-31T21:23:37.239Z,2.92
2018-01-31T21:26:05.859Z,3.42
2018-01-31T21:28:43.605Z,3.42
2018-01-31T21:31:11.193Z,2.85
2018-01-31T21:33:38.759Z,3.10
2018-01-31T21:36:07.075Z,2.87
2018-01-31T21:38:34.626Z,3.72
2018-01-31T21:41:02.213Z,3.20
2018-01-31T21:43:29.796Z,3.15
2018-01-31T21:45:57.336Z,3.30
2018-01-31T21:48:24.909Z,4.68
2018-01-31T21:50:52.580Z,4.18
2018-01-31T21:53:20.150Z,3.20
2018-01-31T21:55:47.712Z,3.35
2018-01-31T21:58:15.553Z,2.78
2018-01-31T22:00:43.133Z,3.05
2018-01-31T22:03:10.706Z,2.62
2018-01-31T22:05:38.251Z,2.55
2018-01-31T22:08:05.817Z,2.85
2018-01-31T22:10:33.378Z,3.10
2018-01-31T22:13:00.960Z,2.80
2018-01-31T22:15:28.535Z,2.83
2018-01-31T22:17:56.859Z,2.67
2018-01-31T22:20:24.403Z,3.03
2018-01-31T22:22:53.229Z,2.33
2018-01-31T22:25:20.839Z,3.10
2018-01-31T22:27:49.168Z,2.80
2018-01-31T22:30:16.876Z,2.53
2018-01-31T22:32:45.293Z,2.70
2018-01-31T22:35:12.865Z,2.75
2018-01-31T22:37:40.604Z,2.83
2018-01-31T22:40:08.169Z,2.78
2018-01-31T22:42:36.513Z,3.40
2018-01-31T22:45:04.079Z,2.60
2018-01-31T22:47:31.616Z,2.87
2018-01-31T22:49:59.176Z,3.75
2018-01-31T22:52:26.733Z,3.20
2018-01-31T22:54:54.508Z,3.35
2018-01-31T22:57:22.092Z,3.08
2018-01-31T22:59:50.453Z,3.90
2018-01-31T23:02:17.990Z,4.20
2018-01-31T23:04:45.621Z,4.00
2018-01-31T23:07:13.361Z,3.92
2018-01-31T23:09:41.681Z,3.70
2018-01-31T23:12:24.073Z,3.62
2018-01-31T23:14:54.542Z,3.42
2018-01-31T23:17:27.621Z,3.30
2018-01-31T23:19:55.329Z,3.37
2018-01-31T23:22:22.879Z,3.47
2018-01-31T23:24:50.432Z,3.60
2018-01-31T23:27:18.010Z,3.20
2018-01-31T23:29:45.608Z,3.33
2018-01-31T23:32:13.236Z,3.30
2018-01-31T23:34:41.186Z,2.75
2018-01-31T23:37:08.767Z,3.25
2018-01-31T23:39:36.400Z,2.78
2018-01-31T23:42:04.123Z,3.75
2018-01-31T23:44:32.428Z,3.20
2018-01-31T23:46:59.969Z,3.70
2018-01-31T23:49:27.549Z,3.30
2018-01-31T23:51:55.140Z,3.53
2018-01-31T23:54:22.686Z,4.45
2018-01-31T23:56:50.238Z,4.05
2018-01-31T23:59:17.793Z,4.05
